sensor_id;sensor_type;location;lat;lon;timestamp;temperature;humidity
22795;DHT22;11564;50.920;11.612;2023-07-08T00:00:16;14.10;99.90
22795;DHT22;11564;50.920;11.612;2023-07-08T00:02:43;14.00;99.90
22795;DHT22;11564;50.920;11.612;2023-07-08T00:05:13;14.00;99.90
22795;DHT22;11564;50.920;11.612;2023-07-08T00:07:40;14.00;99.90
22795;DHT22;11564;50.920;11.612;2023-07-08T00:10:26;14.00;99.90
22795;DHT22;11564;50.920;11.612;2023-07-08T00:12:53;13.90;99.90
22795;DHT22;11564;50.920;11.612;2023-07-08T00:15:22;13.80;99.90
22795;DHT22;11564;50.920;11.612;2023-07-08T00:17:49;13.70;99.90
22795;DHT22;11564;50.920;11.612;2023-07-08T00:20:42;13.70;99.90
22795;DHT22;11564;50.920;11.612;2023-07-08T00:23:09;13.70;99.90
22795;DHT22;11564;50.920;11.612;2023-07-08T00:25:35;13.60;99.90
22795;DHT22;11564;50.920;11.612;2023-07-08T00:28:01;13.50;99.90
22795;DHT22;11564;50.920;11.612;2023-07-08T00:30:29;13.50;99.90
22795;DHT22;11564;50.920;11.612;2023-07-08T00:32:56;13.50;99.90
22795;DHT22;11564;50.920;11.612;2023-07-08T00:35:26;13.40;99.90
22795;DHT22;11564;50.920;11.612;2023-07-08T00:37:53;13.40;99.90
22795;DHT22;11564;50.920;11.612;2023-07-08T00:40:31;13.40;99.90
22795;DHT22;11564;50.920;11.612;2023-07-08T00:43:01;13.40;99.90
22795;DHT22;11564;50.920;11.612;2023-07-08T00:45:41;13.30;99.90
22795;DHT22;11564;50.920;11.612;2023-07-08T00:48:29;13.30;99.90
22795;DHT22;11564;50.920;11.612;2023-07-08T00:50:55;13.30;99.90
22795;DHT22;11564;50.920;11.612;2023-07-08T00:53:33;13.20;99.90
22795;DHT22;11564;50.920;11.612;2023-07-08T00:56:03;13.20;99.90
22795;DHT22;11564;50.920;11.612;2023-07-08T00:58:40;13.10;99.90
22795;DHT22;11564;50.920;11.612;2023-07-08T01:01:07;13.10;99.90
22795;DHT22;11564;50.920;11.612;2023-07-08T01:03:37;13.10;99.90
22795;DHT22;11564;50.920;11.612;2023-07-08T01:06:07;13.00;99.90
22795;DHT22;11564;50.920;11.612;2023-07-08T01:08:33;13.00;99.90
22795;DHT22;11564;50.920;11.612;2023-07-08T01:11:02;12.90;99.90
22795;DHT22;11564;50.920;11.612;2023-07-08T01:13:33;12.90;99.90
22795;DHT22;11564;50.920;11.612;2023-07-08T01:15:59;12.90;99.90
22795;DHT22;11564;50.920;11.612;2023-07-08T01:18:26;12.80;99.90
22795;DHT22;11564;50.920;11.612;2023-07-08T01:20:51;12.80;99.90
22795;DHT22;11564;50.920;11.612;2023-07-08T01:23:21;12.80;99.90
22795;DHT22;11564;50.920;11.612;2023-07-08T01:25:47;12.70;99.90
22795;DHT22;11564;50.920;11.612;2023-07-08T01:28:14;12.60;99.90
22795;DHT22;11564;50.920;11.612;2023-07-08T01:30:42;12.60;99.90
22795;DHT22;11564;50.920;11.612;2023-07-08T01:33:16;12.60;99.90
22795;DHT22;11564;50.920;11.612;2023-07-08T01:35:43;12.50;99.90
22795;DHT22;11564;50.920;11.612;2023-07-08T01:38:10;12.50;99.90
22795;DHT22;11564;50.920;11.612;2023-07-08T01:40:37;12.50;99.90
22795;DHT22;11564;50.920;11.612;2023-07-08T01:43:05;12.40;99.90
22795;DHT22;11564;50.920;11.612;2023-07-08T01:45:40;12.40;99.90
22795;DHT22;11564;50.920;11.612;2023-07-08T01:48:11;12.40;99.90
22795;DHT22;11564;50.920;11.612;2023-07-08T01:50:42;12.30;99.90
22795;DHT22;11564;50.920;11.612;2023-07-08T01:53:14;12.30;99.90
22795;DHT22;11564;50.920;11.612;2023-07-08T01:55:40;12.20;99.90
22795;DHT22;11564;50.920;11.612;2023-07-08T01:58:05;12.20;99.90
22795;DHT22;11564;50.920;11.612;2023-07-08T02:00:31;12.20;99.90
22795;DHT22;11564;50.920;11.612;2023-07-08T02:02:56;12.10;99.90
22795;DHT22;11564;50.920;11.612;2023-07-08T02:05:23;12.10;99.90
22795;DHT22;11564;50.920;11.612;2023-07-08T02:07:48;12.10;99.90
22795;DHT22;11564;50.920;11.612;2023-07-08T02:10:14;12.00;99.90
22795;DHT22;11564;50.920;11.612;2023-07-08T02:12:40;12.00;99.90
22795;DHT22;11564;50.920;11.612;2023-07-08T02:15:07;12.00;99.90
22795;DHT22;11564;50.920;11.612;2023-07-08T02:17:33;11.90;99.90
22795;DHT22;11564;50.920;11.612;2023-07-08T02:19:59;11.80;99.90
22795;DHT22;11564;50.920;11.612;2023-07-08T02:22:24;11.90;99.90
22795;DHT22;11564;50.920;11.612;2023-07-08T02:24:50;11.80;99.90
22795;DHT22;11564;50.920;11.612;2023-07-08T02:27:15;11.80;99.90
22795;DHT22;11564;50.920;11.612;2023-07-08T02:29:42;11.80;99.90
22795;DHT22;11564;50.920;11.612;2023-07-08T02:32:08;11.70;99.90
22795;DHT22;11564;50.920;11.612;2023-07-08T02:34:35;11.70;99.90
22795;DHT22;11564;50.920;11.612;2023-07-08T02:37:01;11.70;99.90
22795;DHT22;11564;50.920;11.612;2023-07-08T02:39:27;11.60;99.90
22795;DHT22;11564;50.920;11.612;2023-07-08T02:41:52;11.60;99.90
22795;DHT22;11564;50.920;11.612;2023-07-08T02:44:18;11.50;99.90
22795;DHT22;11564;50.920;11.612;2023-07-08T02:46:43;11.50;99.90
22795;DHT22;11564;50.920;11.612;2023-07-08T02:49:09;11.50;99.90
22795;DHT22;11564;50.920;11.612;2023-07-08T02:51:34;11.50;99.90
22795;DHT22;11564;50.920;11.612;2023-07-08T02:54:00;11.40;99.90
22795;DHT22;11564;50.920;11.612;2023-07-08T02:56:26;11.40;99.90
22795;DHT22;11564;50.920;11.612;2023-07-08T02:58:52;11.30;99.90
22795;DHT22;11564;50.920;11.612;2023-07-08T03:01:18;11.30;99.90
22795;DHT22;11564;50.920;11.612;2023-07-08T03:03:47;11.30;99.90
22795;DHT22;11564;50.920;11.612;2023-07-08T03:06:13;11.30;99.90
22795;DHT22;11564;50.920;11.612;2023-07-08T03:08:38;11.20;99.90
22795;DHT22;11564;50.920;11.612;2023-07-08T03:11:06;11.20;99.90
22795;DHT22;11564;50.920;11.612;2023-07-08T03:13:32;11.10;99.90
22795;DHT22;11564;50.920;11.612;2023-07-08T03:15:59;11.10;99.90
22795;DHT22;11564;50.920;11.612;2023-07-08T03:18:26;11.10;99.90
22795;DHT22;11564;50.920;11.612;2023-07-08T03:20:56;11.00;99.90
22795;DHT22;11564;50.920;11.612;2023-07-08T03:23:25;11.00;99.90
22795;DHT22;11564;50.920;11.612;2023-07-08T03:25:52;11.00;99.90
22795;DHT22;11564;50.920;11.612;2023-07-08T03:28:17;11.00;99.90
22795;DHT22;11564;50.920;11.612;2023-07-08T03:30:44;11.00;99.90
22795;DHT22;11564;50.920;11.612;2023-07-08T03:33:11;11.10;99.90
22795;DHT22;11564;50.920;11.612;2023-07-08T03:35:37;11.00;99.90
22795;DHT22;11564;50.920;11.612;2023-07-08T03:38:06;11.00;99.90
22795;DHT22;11564;50.920;11.612;2023-07-08T03:40:32;11.00;99.90
22795;DHT22;11564;50.920;11.612;2023-07-08T03:42:57;11.00;99.90
22795;DHT22;11564;50.920;11.612;2023-07-08T03:45:23;11.10;99.90
22795;DHT22;11564;50.920;11.612;2023-07-08T03:47:48;11.10;99.90
22795;DHT22;11564;50.920;11.612;2023-07-08T03:50:20;11.10;99.90
22795;DHT22;11564;50.920;11.612;2023-07-08T03:52:47;11.10;99.90
22795;DHT22;11564;50.920;11.612;2023-07-08T03:55:13;11.10;99.90
22795;DHT22;11564;50.920;11.612;2023-07-08T03:57:39;11.10;99.90
22795;DHT22;11564;50.920;11.612;2023-07-08T04:00:05;11.20;99.90
22795;DHT22;11564;50.920;11.612;2023-07-08T04:02:38;11.20;99.90
22795;DHT22;11564;50.920;11.612;2023-07-08T04:05:03;11.20;99.90
22795;DHT22;11564;50.920;11.612;2023-07-08T04:07:29;11.20;99.90
22795;DHT22;11564;50.920;11.612;2023-07-08T04:09:55;11.30;99.90
22795;DHT22;11564;50.920;11.612;2023-07-08T04:12:21;11.30;99.90
22795;DHT22;11564;50.920;11.612;2023-07-08T04:14:46;11.40;99.90
22795;DHT22;11564;50.920;11.612;2023-07-08T04:17:13;11.50;99.90
22795;DHT22;11564;50.920;11.612;2023-07-08T04:19:39;11.50;99.90
22795;DHT22;11564;50.920;11.612;2023-07-08T04:22:05;11.50;99.90
22795;DHT22;11564;50.920;11.612;2023-07-08T04:24:34;11.60;99.90
22795;DHT22;11564;50.920;11.612;2023-07-08T04:27:00;11.60;99.90
22795;DHT22;11564;50.920;11.612;2023-07-08T04:29:25;11.70;99.90
22795;DHT22;11564;50.920;11.612;2023-07-08T04:31:51;11.70;99.90
22795;DHT22;11564;50.920;11.612;2023-07-08T04:34:17;11.80;99.90
22795;DHT22;11564;50.920;11.612;2023-07-08T04:36:43;11.90;99.90
22795;DHT22;11564;50.920;11.612;2023-07-08T04:39:09;12.00;99.90
22795;DHT22;11564;50.920;11.612;2023-07-08T04:41:40;12.10;99.90
22795;DHT22;11564;50.920;11.612;2023-07-08T04:44:12;12.20;99.90
22795;DHT22;11564;50.920;11.612;2023-07-08T04:46:49;12.30;99.90
22795;DHT22;11564;50.920;11.612;2023-07-08T04:49:16;12.40;99.90
22795;DHT22;11564;50.920;11.612;2023-07-08T04:51:43;12.50;99.90
22795;DHT22;11564;50.920;11.612;2023-07-08T04:54:09;12.70;99.90
22795;DHT22;11564;50.920;11.612;2023-07-08T04:56:40;12.90;99.90
22795;DHT22;11564;50.920;11.612;2023-07-08T04:59:26;13.00;99.90
22795;DHT22;11564;50.920;11.612;2023-07-08T05:01:52;13.10;99.90
22795;DHT22;11564;50.920;11.612;2023-07-08T05:04:20;13.20;99.90
22795;DHT22;11564;50.920;11.612;2023-07-08T05:06:46;13.40;99.90
22795;DHT22;11564;50.920;11.612;2023-07-08T05:09:12;13.50;99.90
22795;DHT22;11564;50.920;11.612;2023-07-08T05:11:37;13.70;99.90
22795;DHT22;11564;50.920;11.612;2023-07-08T05:14:03;13.80;99.90
22795;DHT22;11564;50.920;11.612;2023-07-08T05:16:32;13.90;99.90
22795;DHT22;11564;50.920;11.612;2023-07-08T05:18:58;14.00;99.90
22795;DHT22;11564;50.920;11.612;2023-07-08T05:21:23;14.10;99.90
22795;DHT22;11564;50.920;11.612;2023-07-08T05:23:49;14.20;99.90
22795;DHT22;11564;50.920;11.612;2023-07-08T05:26:16;14.30;99.90
22795;DHT22;11564;50.920;11.612;2023-07-08T05:28:42;14.30;99.90
22795;DHT22;11564;50.920;11.612;2023-07-08T05:31:08;14.40;99.90
22795;DHT22;11564;50.920;11.612;2023-07-08T05:33:34;14.50;99.90
22795;DHT22;11564;50.920;11.612;2023-07-08T05:36:00;14.70;99.90
22795;DHT22;11564;50.920;11.612;2023-07-08T05:38:26;14.70;99.90
22795;DHT22;11564;50.920;11.612;2023-07-08T05:40:56;14.80;99.90
22795;DHT22;11564;50.920;11.612;2023-07-08T05:43:23;14.90;99.90
22795;DHT22;11564;50.920;11.612;2023-07-08T05:45:49;15.00;99.90
22795;DHT22;11564;50.920;11.612;2023-07-08T05:48:15;15.10;99.90
22795;DHT22;11564;50.920;11.612;2023-07-08T05:50:41;15.20;99.90
22795;DHT22;11564;50.920;11.612;2023-07-08T05:53:10;15.30;99.90
22795;DHT22;11564;50.920;11.612;2023-07-08T05:55:36;15.40;99.90
22795;DHT22;11564;50.920;11.612;2023-07-08T05:58:02;15.60;99.90
22795;DHT22;11564;50.920;11.612;2023-07-08T06:00:27;15.70;99.90
22795;DHT22;11564;50.920;11.612;2023-07-08T06:02:53;15.90;99.90
22795;DHT22;11564;50.920;11.612;2023-07-08T06:05:18;15.90;99.90
22795;DHT22;11564;50.920;11.612;2023-07-08T06:07:44;16.00;99.90
22795;DHT22;11564;50.920;11.612;2023-07-08T06:10:10;16.20;99.90
22795;DHT22;11564;50.920;11.612;2023-07-08T06:12:35;16.30;99.90
22795;DHT22;11564;50.920;11.612;2023-07-08T06:15:01;16.50;99.90
22795;DHT22;11564;50.920;11.612;2023-07-08T06:17:27;16.60;99.90
22795;DHT22;11564;50.920;11.612;2023-07-08T06:19:52;16.80;99.90
22795;DHT22;11564;50.920;11.612;2023-07-08T06:22:18;16.90;99.90
22795;DHT22;11564;50.920;11.612;2023-07-08T06:24:44;17.00;99.90
22795;DHT22;11564;50.920;11.612;2023-07-08T06:27:09;17.10;99.90
22795;DHT22;11564;50.920;11.612;2023-07-08T06:29:35;17.20;99.90
22795;DHT22;11564;50.920;11.612;2023-07-08T06:32:02;17.30;99.90
22795;DHT22;11564;50.920;11.612;2023-07-08T06:34:27;17.50;99.90
22795;DHT22;11564;50.920;11.612;2023-07-08T06:36:53;17.60;99.90
22795;DHT22;11564;50.920;11.612;2023-07-08T06:39:19;17.80;99.90
22795;DHT22;11564;50.920;11.612;2023-07-08T06:41:45;18.00;99.90
22795;DHT22;11564;50.920;11.612;2023-07-08T06:44:11;18.20;99.90
22795;DHT22;11564;50.920;11.612;2023-07-08T06:46:36;18.40;99.90
22795;DHT22;11564;50.920;11.612;2023-07-08T06:49:02;18.60;99.90
22795;DHT22;11564;50.920;11.612;2023-07-08T06:51:28;18.70;99.90
22795;DHT22;11564;50.920;11.612;2023-07-08T06:53:54;18.80;99.90
22795;DHT22;11564;50.920;11.612;2023-07-08T06:56:20;19.00;99.90
22795;DHT22;11564;50.920;11.612;2023-07-08T06:58:46;19.10;99.90
22795;DHT22;11564;50.920;11.612;2023-07-08T07:01:12;19.20;99.90
22795;DHT22;11564;50.920;11.612;2023-07-08T07:03:38;19.30;99.90
22795;DHT22;11564;50.920;11.612;2023-07-08T07:06:04;19.40;99.90
22795;DHT22;11564;50.920;11.612;2023-07-08T07:08:29;19.40;99.90
22795;DHT22;11564;50.920;11.612;2023-07-08T07:10:55;19.40;99.90
22795;DHT22;11564;50.920;11.612;2023-07-08T07:13:21;19.50;99.90
22795;DHT22;11564;50.920;11.612;2023-07-08T07:15:48;19.50;99.90
22795;DHT22;11564;50.920;11.612;2023-07-08T07:18:14;19.60;99.90
22795;DHT22;11564;50.920;11.612;2023-07-08T07:20:50;19.60;99.90
22795;DHT22;11564;50.920;11.612;2023-07-08T07:23:17;19.70;99.90
22795;DHT22;11564;50.920;11.612;2023-07-08T07:25:42;19.90;99.90
22795;DHT22;11564;50.920;11.612;2023-07-08T07:28:09;20.10;99.90
22795;DHT22;11564;50.920;11.612;2023-07-08T07:30:35;20.20;99.90
22795;DHT22;11564;50.920;11.612;2023-07-08T07:33:01;20.50;99.90
22795;DHT22;11564;50.920;11.612;2023-07-08T07:35:27;20.80;99.90
22795;DHT22;11564;50.920;11.612;2023-07-08T07:37:53;21.00;99.90
22795;DHT22;11564;50.920;11.612;2023-07-08T07:40:18;21.30;99.90
22795;DHT22;11564;50.920;11.612;2023-07-08T07:42:45;21.50;99.90
22795;DHT22;11564;50.920;11.612;2023-07-08T07:45:12;21.70;99.90
22795;DHT22;11564;50.920;11.612;2023-07-08T07:47:38;22.00;98.60
22795;DHT22;11564;50.920;11.612;2023-07-08T07:50:05;22.40;99.90
22795;DHT22;11564;50.920;11.612;2023-07-08T07:52:31;22.60;98.30
22795;DHT22;11564;50.920;11.612;2023-07-08T07:54:57;22.70;98.30
22795;DHT22;11564;50.920;11.612;2023-07-08T07:57:23;23.00;97.40
22795;DHT22;11564;50.920;11.612;2023-07-08T07:59:49;23.10;96.30
22795;DHT22;11564;50.920;11.612;2023-07-08T08:02:15;23.20;96.00
22795;DHT22;11564;50.920;11.612;2023-07-08T08:04:41;23.40;95.60
22795;DHT22;11564;50.920;11.612;2023-07-08T08:07:07;23.50;94.50
22795;DHT22;11564;50.920;11.612;2023-07-08T08:09:32;23.70;94.90
22795;DHT22;11564;50.920;11.612;2023-07-08T08:11:58;23.90;93.70
22795;DHT22;11564;50.920;11.612;2023-07-08T08:14:24;24.00;93.60
22795;DHT22;11564;50.920;11.612;2023-07-08T08:16:49;24.20;92.70
22795;DHT22;11564;50.920;11.612;2023-07-08T08:19:15;24.30;92.90
22795;DHT22;11564;50.920;11.612;2023-07-08T08:21:41;24.50;92.40
22795;DHT22;11564;50.920;11.612;2023-07-08T08:24:06;24.60;91.60
22795;DHT22;11564;50.920;11.612;2023-07-08T08:26:32;24.80;90.50
22795;DHT22;11564;50.920;11.612;2023-07-08T08:28:57;25.00;90.20
22795;DHT22;11564;50.920;11.612;2023-07-08T08:31:23;25.20;90.30
22795;DHT22;11564;50.920;11.612;2023-07-08T08:33:51;25.30;88.50
22795;DHT22;11564;50.920;11.612;2023-07-08T08:36:16;25.60;86.10
22795;DHT22;11564;50.920;11.612;2023-07-08T08:38:42;25.80;86.70
22795;DHT22;11564;50.920;11.612;2023-07-08T08:41:17;25.90;83.20
22795;DHT22;11564;50.920;11.612;2023-07-08T08:43:44;26.10;83.30
22795;DHT22;11564;50.920;11.612;2023-07-08T08:51:48;26.50;79.70
22795;DHT22;11564;50.920;11.612;2023-07-08T08:54:14;26.70;77.70
22795;DHT22;11564;50.920;11.612;2023-07-08T08:59:42;26.90;76.40
22795;DHT22;11564;50.920;11.612;2023-07-08T09:02:36;26.90;76.90
22795;DHT22;11564;50.920;11.612;2023-07-08T09:05:07;27.10;72.80
22795;DHT22;11564;50.920;11.612;2023-07-08T09:13:00;27.60;71.00
22795;DHT22;11564;50.920;11.612;2023-07-08T09:15:28;27.80;70.30
22795;DHT22;11564;50.920;11.612;2023-07-08T09:17:57;27.90;71.50
22795;DHT22;11564;50.920;11.612;2023-07-08T09:20:28;28.10;70.60
22795;DHT22;11564;50.920;11.612;2023-07-08T09:23:04;28.30;71.80
22795;DHT22;11564;50.920;11.612;2023-07-08T09:25:42;28.60;71.60
22795;DHT22;11564;50.920;11.612;2023-07-08T09:28:12;28.80;65.10
22795;DHT22;11564;50.920;11.612;2023-07-08T09:30:38;29.00;61.60
22795;DHT22;11564;50.920;11.612;2023-07-08T09:33:04;29.40;60.70
22795;DHT22;11564;50.920;11.612;2023-07-08T09:35:47;29.70;59.50
22795;DHT22;11564;50.920;11.612;2023-07-08T09:38:16;29.70;55.60
22795;DHT22;11564;50.920;11.612;2023-07-08T09:40:50;30.00;55.40
22795;DHT22;11564;50.920;11.612;2023-07-08T09:43:27;30.30;52.50
22795;DHT22;11564;50.920;11.612;2023-07-08T09:45:58;30.40;51.60
22795;DHT22;11564;50.920;11.612;2023-07-08T09:48:28;30.90;53.00
22795;DHT22;11564;50.920;11.612;2023-07-08T09:50:56;31.20;52.60
22795;DHT22;11564;50.920;11.612;2023-07-08T09:53:23;31.40;49.40
22795;DHT22;11564;50.920;11.612;2023-07-08T09:55:50;31.70;50.90
22795;DHT22;11564;50.920;11.612;2023-07-08T09:58:24;31.80;50.70
22795;DHT22;11564;50.920;11.612;2023-07-08T10:01:09;31.80;51.60
22795;DHT22;11564;50.920;11.612;2023-07-08T10:03:35;31.40;48.60
22795;DHT22;11564;50.920;11.612;2023-07-08T10:06:25;31.20;48.20
22795;DHT22;11564;50.920;11.612;2023-07-08T10:08:53;31.10;48.50
22795;DHT22;11564;50.920;11.612;2023-07-08T10:11:41;31.20;48.00
22795;DHT22;11564;50.920;11.612;2023-07-08T10:14:37;30.90;47.60
22795;DHT22;11564;50.920;11.612;2023-07-08T10:17:02;30.90;47.50
22795;DHT22;11564;50.920;11.612;2023-07-08T10:19:28;30.90;50.10
22795;DHT22;11564;50.920;11.612;2023-07-08T10:30:36;31.60;50.20
22795;DHT22;11564;50.920;11.612;2023-07-08T10:36:20;32.10;46.70
22795;DHT22;11564;50.920;11.612;2023-07-08T10:39:11;32.20;45.70
22795;DHT22;11564;50.920;11.612;2023-07-08T10:44:48;32.50;47.70
22795;DHT22;11564;50.920;11.612;2023-07-08T10:47:36;32.80;47.20
22795;DHT22;11564;50.920;11.612;2023-07-08T10:56:01;33.90;47.70
22795;DHT22;11564;50.920;11.612;2023-07-08T10:58:40;34.00;48.00
22795;DHT22;11564;50.920;11.612;2023-07-08T11:04:07;34.00;45.60
22795;DHT22;11564;50.920;11.612;2023-07-08T11:06:56;33.80;46.50
22795;DHT22;11564;50.920;11.612;2023-07-08T11:09:34;34.00;46.60
22795;DHT22;11564;50.920;11.612;2023-07-08T11:12:08;33.50;45.60
22795;DHT22;11564;50.920;11.612;2023-07-08T11:14:42;33.50;46.50
22795;DHT22;11564;50.920;11.612;2023-07-08T11:19:57;32.70;47.10
22795;DHT22;11564;50.920;11.612;2023-07-08T11:22:24;32.10;46.80
22795;DHT22;11564;50.920;11.612;2023-07-08T11:24:54;31.90;48.20
22795;DHT22;11564;50.920;11.612;2023-07-08T11:27:29;31.90;47.00
22795;DHT22;11564;50.920;11.612;2023-07-08T11:32:37;31.70;47.30
22795;DHT22;11564;50.920;11.612;2023-07-08T11:35:06;31.50;46.10
22795;DHT22;11564;50.920;11.612;2023-07-08T11:37:38;31.40;47.80
22795;DHT22;11564;50.920;11.612;2023-07-08T11:47:48;31.90;46.80
22795;DHT22;11564;50.920;11.612;2023-07-08T11:50:24;32.20;48.30
22795;DHT22;11564;50.920;11.612;2023-07-08T11:52:59;32.60;49.80
22795;DHT22;11564;50.920;11.612;2023-07-08T11:58:51;32.30;47.90
22795;DHT22;11564;50.920;11.612;2023-07-08T12:03:50;31.80;48.10
22795;DHT22;11564;50.920;11.612;2023-07-08T12:08:58;32.60;48.20
22795;DHT22;11564;50.920;11.612;2023-07-08T12:11:28;33.00;46.10
22795;DHT22;11564;50.920;11.612;2023-07-08T12:13:58;33.10;44.90
22795;DHT22;11564;50.920;11.612;2023-07-08T12:16:25;33.30;45.70
22795;DHT22;11564;50.920;11.612;2023-07-08T12:18:52;33.00;44.00
22795;DHT22;11564;50.920;11.612;2023-07-08T12:21:19;33.30;47.80
22795;DHT22;11564;50.920;11.612;2023-07-08T12:23:47;33.50;44.90
22795;DHT22;11564;50.920;11.612;2023-07-08T12:26:14;33.60;43.80
22795;DHT22;11564;50.920;11.612;2023-07-08T12:28:40;33.30;44.40
22795;DHT22;11564;50.920;11.612;2023-07-08T12:33:40;33.10;41.80
22795;DHT22;11564;50.920;11.612;2023-07-08T12:36:09;33.30;45.00
22795;DHT22;11564;50.920;11.612;2023-07-08T12:38:42;34.00;46.40
22795;DHT22;11564;50.920;11.612;2023-07-08T12:41:22;34.60;45.60
22795;DHT22;11564;50.920;11.612;2023-07-08T12:43:49;35.00;45.80
22795;DHT22;11564;50.920;11.612;2023-07-08T12:46:17;35.20;45.60
22795;DHT22;11564;50.920;11.612;2023-07-08T12:48:43;35.00;42.90
22795;DHT22;11564;50.920;11.612;2023-07-08T12:51:15;35.10;45.00
22795;DHT22;11564;50.920;11.612;2023-07-08T12:53:43;35.50;45.30
22795;DHT22;11564;50.920;11.612;2023-07-08T12:56:09;35.70;43.40
22795;DHT22;11564;50.920;11.612;2023-07-08T12:58:44;35.80;43.80
22795;DHT22;11564;50.920;11.612;2023-07-08T13:01:22;35.70;42.10
22795;DHT22;11564;50.920;11.612;2023-07-08T13:03:50;35.40;40.90
22795;DHT22;11564;50.920;11.612;2023-07-08T13:06:20;35.20;40.70
22795;DHT22;11564;50.920;11.612;2023-07-08T13:08:47;35.50;42.90
22795;DHT22;11564;50.920;11.612;2023-07-08T13:11:16;35.60;45.20
22795;DHT22;11564;50.920;11.612;2023-07-08T13:14:05;35.70;43.10
22795;DHT22;11564;50.920;11.612;2023-07-08T13:16:33;36.00;43.50
22795;DHT22;11564;50.920;11.612;2023-07-08T13:19:00;36.50;43.30
22795;DHT22;11564;50.920;11.612;2023-07-08T13:21:26;37.40;42.40
22795;DHT22;11564;50.920;11.612;2023-07-08T13:23:54;38.50;40.70
22795;DHT22;11564;50.920;11.612;2023-07-08T13:26:26;39.30;39.10
22795;DHT22;11564;50.920;11.612;2023-07-08T13:29:00;41.80;38.20
22795;DHT22;11564;50.920;11.612;2023-07-08T13:31:33;44.30;35.20
22795;DHT22;11564;50.920;11.612;2023-07-08T13:34:06;46.00;32.10
22795;DHT22;11564;50.920;11.612;2023-07-08T13:36:38;47.90;32.60
22795;DHT22;11564;50.920;11.612;2023-07-08T13:39:09;49.00;31.50
22795;DHT22;11564;50.920;11.612;2023-07-08T13:41:42;51.50;29.10
22795;DHT22;11564;50.920;11.612;2023-07-08T13:44:09;53.10;27.30
22795;DHT22;11564;50.920;11.612;2023-07-08T13:49:12;52.70;26.60
22795;DHT22;11564;50.920;11.612;2023-07-08T13:51:39;54.40;26.60
22795;DHT22;11564;50.920;11.612;2023-07-08T13:54:26;56.50;25.90
22795;DHT22;11564;50.920;11.612;2023-07-08T13:57:00;57.10;24.90
22795;DHT22;11564;50.920;11.612;2023-07-08T13:59:26;58.30;24.20
22795;DHT22;11564;50.920;11.612;2023-07-08T14:01:55;58.60;23.60
22795;DHT22;11564;50.920;11.612;2023-07-08T14:04:30;58.10;22.90
22795;DHT22;11564;50.920;11.612;2023-07-08T14:06:57;55.50;23.20
22795;DHT22;11564;50.920;11.612;2023-07-08T14:09:23;52.20;24.80
22795;DHT22;11564;50.920;11.612;2023-07-08T14:11:52;52.90;24.00
22795;DHT22;11564;50.920;11.612;2023-07-08T14:14:18;52.00;23.90
22795;DHT22;11564;50.920;11.612;2023-07-08T14:16:49;51.80;24.60
22795;DHT22;11564;50.920;11.612;2023-07-08T14:19:22;52.40;24.10
22795;DHT22;11564;50.920;11.612;2023-07-08T14:21:59;53.90;24.00
22795;DHT22;11564;50.920;11.612;2023-07-08T14:24:25;55.40;23.70
22795;DHT22;11564;50.920;11.612;2023-07-08T14:26:52;56.30;23.40
22795;DHT22;11564;50.920;11.612;2023-07-08T14:29:18;57.10;22.90
22795;DHT22;11564;50.920;11.612;2023-07-08T14:31:44;57.20;23.40
22795;DHT22;11564;50.920;11.612;2023-07-08T14:34:13;57.50;22.80
22795;DHT22;11564;50.920;11.612;2023-07-08T14:36:41;58.00;22.80
22795;DHT22;11564;50.920;11.612;2023-07-08T14:39:15;57.50;23.70
22795;DHT22;11564;50.920;11.612;2023-07-08T14:41:42;58.30;23.70
22795;DHT22;11564;50.920;11.612;2023-07-08T14:44:22;58.70;22.90
22795;DHT22;11564;50.920;11.612;2023-07-08T14:46:49;58.70;23.00
22795;DHT22;11564;50.920;11.612;2023-07-08T14:49:17;58.10;23.10
22795;DHT22;11564;50.920;11.612;2023-07-08T14:51:43;57.10;22.70
22795;DHT22;11564;50.920;11.612;2023-07-08T14:54:09;55.40;23.70
22795;DHT22;11564;50.920;11.612;2023-07-08T14:56:35;56.10;23.90
22795;DHT22;11564;50.920;11.612;2023-07-08T14:59:01;56.40;23.40
22795;DHT22;11564;50.920;11.612;2023-07-08T15:01:26;55.40;23.20
22795;DHT22;11564;50.920;11.612;2023-07-08T15:03:55;56.30;23.60
22795;DHT22;11564;50.920;11.612;2023-07-08T15:06:21;57.90;23.10
22795;DHT22;11564;50.920;11.612;2023-07-08T15:08:47;57.80;23.10
22795;DHT22;11564;50.920;11.612;2023-07-08T15:11:13;58.60;22.90
22795;DHT22;11564;50.920;11.612;2023-07-08T15:13:41;58.10;22.70
22795;DHT22;11564;50.920;11.612;2023-07-08T15:16:15;57.10;22.50
22795;DHT22;11564;50.920;11.612;2023-07-08T15:18:42;57.10;22.90
22795;DHT22;11564;50.920;11.612;2023-07-08T15:21:14;57.10;22.50
22795;DHT22;11564;50.920;11.612;2023-07-08T15:23:40;55.20;23.10
22795;DHT22;11564;50.920;11.612;2023-07-08T15:26:12;55.30;23.70
22795;DHT22;11564;50.920;11.612;2023-07-08T15:28:46;55.50;23.00
22795;DHT22;11564;50.920;11.612;2023-07-08T15:31:15;54.20;23.70
22795;DHT22;11564;50.920;11.612;2023-07-08T15:33:42;54.90;24.10
22795;DHT22;11564;50.920;11.612;2023-07-08T15:36:11;54.00;24.00
22795;DHT22;11564;50.920;11.612;2023-07-08T15:38:37;52.20;24.80
22795;DHT22;11564;50.920;11.612;2023-07-08T15:41:03;48.80;25.70
22795;DHT22;11564;50.920;11.612;2023-07-08T15:43:31;47.00;26.80
22795;DHT22;11564;50.920;11.612;2023-07-08T15:45:57;49.40;27.70
22795;DHT22;11564;50.920;11.612;2023-07-08T15:48:25;51.00;26.30
22795;DHT22;11564;50.920;11.612;2023-07-08T15:50:51;52.50;24.90
22795;DHT22;11564;50.920;11.612;2023-07-08T15:53:16;54.00;24.80
22795;DHT22;11564;50.920;11.612;2023-07-08T15:55:44;54.60;24.90
22795;DHT22;11564;50.920;11.612;2023-07-08T15:58:22;55.00;24.40
22795;DHT22;11564;50.920;11.612;2023-07-08T16:00:49;55.90;24.60
22795;DHT22;11564;50.920;11.612;2023-07-08T16:03:24;55.20;24.40
22795;DHT22;11564;50.920;11.612;2023-07-08T16:05:54;54.00;24.60
22795;DHT22;11564;50.920;11.612;2023-07-08T16:08:20;54.40;24.40
22795;DHT22;11564;50.920;11.612;2023-07-08T16:10:56;54.60;24.90
22795;DHT22;11564;50.920;11.612;2023-07-08T16:13:31;54.60;24.30
22795;DHT22;11564;50.920;11.612;2023-07-08T16:15:58;54.20;24.10
22795;DHT22;11564;50.920;11.612;2023-07-08T16:18:24;54.30;24.60
22795;DHT22;11564;50.920;11.612;2023-07-08T16:20:50;54.60;24.30
22795;DHT22;11564;50.920;11.612;2023-07-08T16:23:16;54.60;24.10
22795;DHT22;11564;50.920;11.612;2023-07-08T16:25:48;54.20;24.50
22795;DHT22;11564;50.920;11.612;2023-07-08T16:28:34;53.40;24.70